createdAt,value
2018-05-10T00:00:20.471Z,23.70
2018-05-10T00:02:49.022Z,23.70
2018-05-10T00:05:16.866Z,23.60
2018-05-10T00:07:44.659Z,23.30
2018-05-10T00:10:12.453Z,23.50
2018-05-10T00:12:40.223Z,23.80
2018-05-10T00:15:08.026Z,23.20
2018-05-10T00:17:35.784Z,23.30
2018-05-10T00:20:03.601Z,23.30
2018-05-10T00:22:31.448Z,23.40
2018-05-10T00:24:59.260Z,23.90
2018-05-10T00:27:27.008Z,24.50
2018-05-10T00:29:55.522Z,24.00
2018-05-10T00:32:23.352Z,24.00
2018-05-10T00:34:51.066Z,23.60
2018-05-10T00:37:18.828Z,23.50
2018-05-10T00:39:46.575Z,23.20
2018-05-10T00:42:14.331Z,24.00
2018-05-10T00:44:42.120Z,23.50
2018-05-10T00:47:09.976Z,24.10
2018-05-10T00:49:37.707Z,23.40
2018-05-10T00:52:06.275Z,23.60
2018-05-10T00:54:45.666Z,23.60
2018-05-10T00:57:13.539Z,24.00
2018-05-10T00:59:41.291Z,24.30
2018-05-10T01:02:09.089Z,23.40
2018-05-10T01:04:36.924Z,22.80
2018-05-10T01:07:04.688Z,22.80
2018-05-10T01:09:32.483Z,23.70
2018-05-10T01:12:00.241Z,23.40
2018-05-10T01:14:28.091Z,23.40
2018-05-10T01:16:55.881Z,23.70
2018-05-10T01:19:23.713Z,22.60
2018-05-10T01:21:51.521Z,23.10
2018-05-10T01:24:19.280Z,23.00
2018-05-10T01:26:47.036Z,23.30
2018-05-10T01:29:14.795Z,22.90
2018-05-10T01:31:42.562Z,22.70
2018-05-10T01:34:10.343Z,23.40
2018-05-10T01:36:38.063Z,23.20
2018-05-10T01:39:05.915Z,23.00
2018-05-10T01:41:34.415Z,22.20
2018-05-10T01:44:02.187Z,22.20
2018-05-10T01:46:29.912Z,22.00
2018-05-10T01:48:58.412Z,22.60
2018-05-10T01:51:26.888Z,22.60
2018-05-10T01:53:54.648Z,22.60
2018-05-10T01:56:23.147Z,21.80
2018-05-10T01:58:50.968Z,21.80
2018-05-10T02:01:18.738Z,22.40
2018-05-10T02:03:46.469Z,23.00
2018-05-10T02:06:14.272Z,22.80
2018-05-10T02:08:42.003Z,22.80
2018-05-10T02:11:09.827Z,22.70
2018-05-10T02:13:37.551Z,21.70
2018-05-10T02:16:05.324Z,22.30
2018-05-10T02:18:33.063Z,21.90
2018-05-10T02:21:00.841Z,21.70
2018-05-10T02:23:28.670Z,22.10
2018-05-10T02:25:56.452Z,21.80
2018-05-10T02:28:24.249Z,22.10
2018-05-10T02:30:52.063Z,22.50
2018-05-10T02:33:19.760Z,22.60
2018-05-10T02:35:47.547Z,21.60
2018-05-10T02:38:15.266Z,21.60
2018-05-10T02:40:43.131Z,21.50
2018-05-10T02:43:10.890Z,21.40
2018-05-10T02:45:38.772Z,21.30
2018-05-10T02:48:06.552Z,21.00
2018-05-10T02:50:34.289Z,20.80
2018-05-10T02:53:02.061Z,21.10
2018-05-10T02:55:29.837Z,20.90
2018-05-10T02:57:57.646Z,21.50
2018-05-10T03:00:25.390Z,20.80
2018-05-10T03:02:53.229Z,20.40
2018-05-10T03:05:20.974Z,21.50
2018-05-10T03:07:48.752Z,21.30
2018-05-10T03:10:16.481Z,21.10
2018-05-10T03:12:44.272Z,21.60
2018-05-10T03:15:11.973Z,22.00
2018-05-10T03:17:39.755Z,22.30
2018-05-10T03:20:07.479Z,22.10
2018-05-10T03:22:35.240Z,21.50
2018-05-10T03:25:03.015Z,21.70
2018-05-10T03:27:30.773Z,21.80
2018-05-10T03:29:58.579Z,21.20
2018-05-10T03:32:26.352Z,20.70
2018-05-10T03:34:54.083Z,21.40
2018-05-10T03:37:21.796Z,20.80
2018-05-10T03:39:50.683Z,20.90
2018-05-10T03:42:18.536Z,20.90
2018-05-10T03:44:46.310Z,20.70
2018-05-10T03:47:14.814Z,20.90
2018-05-10T03:49:42.607Z,20.90
2018-05-10T03:52:10.367Z,21.10
2018-05-10T03:54:38.132Z,21.50
2018-05-10T03:57:05.904Z,21.30
2018-05-10T03:59:33.678Z,20.60
2018-05-10T04:02:01.482Z,21.00
2018-05-10T04:04:40.886Z,21.30
2018-05-10T04:07:20.362Z,21.50
2018-05-10T04:10:00.932Z,20.90
2018-05-10T04:12:29.424Z,21.00
2018-05-10T04:14:57.180Z,21.00
2018-05-10T04:17:25.708Z,21.30
2018-05-10T04:19:53.468Z,21.30
2018-05-10T04:22:21.204Z,20.50
2018-05-10T04:24:48.948Z,21.00
2018-05-10T04:27:17.399Z,20.20
2018-05-10T04:29:45.234Z,20.20
2018-05-10T04:32:13.005Z,20.60
2018-05-10T04:34:40.759Z,21.00
2018-05-10T04:37:08.464Z,20.80
2018-05-10T04:39:36.264Z,20.30
2018-05-10T04:42:04.790Z,19.80
2018-05-10T04:44:32.548Z,19.80
2018-05-10T04:47:00.273Z,20.00
2018-05-10T04:49:28.851Z,20.60
2018-05-10T04:51:57.329Z,20.00
2018-05-10T04:54:25.766Z,20.10
2018-05-10T04:56:53.511Z,20.10
2018-05-10T04:59:21.196Z,20.20
2018-05-10T05:01:48.937Z,20.00
2018-05-10T05:04:16.773Z,20.50
2018-05-10T05:06:45.290Z,20.40
2018-05-10T05:09:13.063Z,20.40
2018-05-10T05:11:40.819Z,20.40
2018-05-10T05:14:08.508Z,20.80
2018-05-10T05:16:36.257Z,20.50
2018-05-10T05:19:04.016Z,20.60
2018-05-10T05:21:31.783Z,20.80
2018-05-10T05:23:59.498Z,21.20
2018-05-10T05:26:27.283Z,20.70
2018-05-10T05:28:55.006Z,20.20
2018-05-10T05:31:22.754Z,20.20
2018-05-10T05:33:50.455Z,20.20
2018-05-10T05:36:18.177Z,20.50
2018-05-10T05:38:45.930Z,20.50
2018-05-10T05:41:13.798Z,20.90
2018-05-10T05:43:41.452Z,20.90
2018-05-10T05:46:09.191Z,20.80
2018-05-10T05:48:36.930Z,20.70
2018-05-10T05:51:04.616Z,20.70
2018-05-10T05:53:32.371Z,20.50
2018-05-10T05:56:00.104Z,20.50
2018-05-10T05:58:27.855Z,20.70
2018-05-10T06:00:55.640Z,22.00
2018-05-10T06:03:23.337Z,21.50
2018-05-10T06:05:51.060Z,22.50
2018-05-10T06:08:18.817Z,22.70
2018-05-10T06:10:46.536Z,22.30
2018-05-10T06:13:14.293Z,21.70
2018-05-10T06:15:42.003Z,21.40
2018-05-10T06:18:09.792Z,21.40
2018-05-10T06:20:37.538Z,21.60
2018-05-10T06:23:05.276Z,21.00
2018-05-10T06:25:32.992Z,21.10
2018-05-10T06:28:01.506Z,20.50
2018-05-10T06:30:29.213Z,20.50
2018-05-10T06:32:56.987Z,20.20
2018-05-10T06:35:24.749Z,20.60
2018-05-10T06:37:52.497Z,20.80
2018-05-10T06:40:20.203Z,20.80
2018-05-10T06:42:48.688Z,20.60
2018-05-10T06:45:17.192Z,20.50
2018-05-10T06:47:44.900Z,20.50
2018-05-10T06:50:12.653Z,20.50
2018-05-10T06:52:40.380Z,20.70
2018-05-10T06:55:08.133Z,20.90
2018-05-10T06:57:35.816Z,20.80
2018-05-10T07:00:03.606Z,20.40
2018-05-10T07:02:31.353Z,20.70
2018-05-10T07:04:59.154Z,20.90
2018-05-10T07:07:26.870Z,21.30
2018-05-10T07:09:54.782Z,21.10
2018-05-10T07:12:22.409Z,20.70
2018-05-10T07:14:50.288Z,20.40
2018-05-10T07:17:18.930Z,20.50
2018-05-10T07:19:46.689Z,20.90
2018-05-10T07:22:15.203Z,21.50
2018-05-10T07:24:42.964Z,21.40
2018-05-10T07:27:10.663Z,21.50
2018-05-10T07:29:38.432Z,21.10
2018-05-10T07:32:06.152Z,21.90
2018-05-10T07:34:33.904Z,22.50
2018-05-10T07:37:01.683Z,22.80
2018-05-10T07:39:29.370Z,22.00
2018-05-10T07:41:57.149Z,22.20
2018-05-10T07:44:24.900Z,22.00
2018-05-10T07:46:52.632Z,21.80
2018-05-10T07:49:20.318Z,21.60
2018-05-10T07:51:48.094Z,21.30
2018-05-10T07:54:15.781Z,21.90
2018-05-10T07:56:43.513Z,22.30
2018-05-10T07:59:11.217Z,21.80
2018-05-10T08:01:38.984Z,22.40
2018-05-10T08:04:07.452Z,22.90
2018-05-10T08:06:35.198Z,22.90
2018-05-10T08:09:02.984Z,22.90
2018-05-10T08:11:30.727Z,23.00
2018-05-10T08:13:58.427Z,22.70
2018-05-10T08:16:26.157Z,22.30
2018-05-10T08:18:53.868Z,22.00
2018-05-10T08:21:36.477Z,22.60
2018-05-10T08:24:04.178Z,22.60
2018-05-10T08:26:31.917Z,23.10
2018-05-10T08:28:59.695Z,22.50
2018-05-10T08:31:27.416Z,23.00
2018-05-10T08:33:55.973Z,23.40
2018-05-10T08:36:23.687Z,23.40
2018-05-10T08:38:51.445Z,24.30
2018-05-10T08:41:19.971Z,23.50
2018-05-10T08:43:47.753Z,23.50
2018-05-10T08:46:15.442Z,23.40
2018-05-10T08:48:43.225Z,23.80
2018-05-10T08:51:10.919Z,23.90
2018-05-10T08:53:38.668Z,23.80
2018-05-10T08:56:06.371Z,24.30
2018-05-10T08:58:34.254Z,24.10
2018-05-10T09:01:02.043Z,24.70
2018-05-10T09:03:30.509Z,24.60
2018-05-10T09:05:58.988Z,24.20
2018-05-10T09:08:26.804Z,24.20
2018-05-10T09:10:54.529Z,24.50
2018-05-10T09:13:23.064Z,22.90
2018-05-10T09:15:50.754Z,22.90
2018-05-10T09:18:18.560Z,23.10
2018-05-10T09:20:46.266Z,23.20
2018-05-10T09:23:14.013Z,24.40
2018-05-10T09:25:41.724Z,24.90
2018-05-10T09:28:10.207Z,24.50
2018-05-10T09:30:38.688Z,24.20
2018-05-10T09:33:07.176Z,23.60
2018-05-10T09:35:35.738Z,23.50
2018-05-10T09:38:03.537Z,23.10
2018-05-10T09:40:31.289Z,23.50
2018-05-10T09:42:59.932Z,22.60
2018-05-10T09:45:28.478Z,22.60
2018-05-10T09:47:56.260Z,22.60
2018-05-10T09:50:23.998Z,23.20
2018-05-10T09:52:51.685Z,21.40
2018-05-10T09:55:19.477Z,22.10
2018-05-10T09:57:47.174Z,22.50
2018-05-10T10:00:20.540Z,22.60
2018-05-10T10:02:48.246Z,21.50
2018-05-10T10:05:15.973Z,20.70
2018-05-10T10:07:43.674Z,21.60
2018-05-10T10:10:11.463Z,22.10
2018-05-10T10:12:39.218Z,22.40
2018-05-10T10:15:07.012Z,21.60
2018-05-10T10:17:34.755Z,21.90
2018-05-10T10:20:02.574Z,22.90
2018-05-10T10:22:31.038Z,21.80
2018-05-10T10:24:58.848Z,21.80
2018-05-10T10:27:26.880Z,21.10
2018-05-10T10:32:51.376Z,23.40
2018-05-10T10:35:19.911Z,21.50
2018-05-10T10:37:47.703Z,21.50
2018-05-10T10:40:15.500Z,22.90
2018-05-10T10:45:50.441Z,23.30
2018-05-10T10:48:18.975Z,23.00
2018-05-10T10:50:46.605Z,23.00
2018-05-10T10:53:15.058Z,22.40
2018-05-10T10:55:42.744Z,22.40
2018-05-10T10:58:10.515Z,23.50
2018-05-10T11:00:38.187Z,22.80
2018-05-10T11:03:06.045Z,23.70
2018-05-10T11:05:33.823Z,23.20
2018-05-10T11:08:01.703Z,22.80
2018-05-10T11:10:29.483Z,22.90
2018-05-10T11:12:57.350Z,22.00
2018-05-10T11:15:25.049Z,22.40
2018-05-10T11:17:52.833Z,22.70
2018-05-10T11:20:20.577Z,21.90
2018-05-10T11:22:48.356Z,21.80
2018-05-10T11:25:16.027Z,22.00
2018-05-10T11:27:43.805Z,21.80
2018-05-10T11:30:11.480Z,21.80
2018-05-10T11:32:39.177Z,21.90
2018-05-10T11:35:06.817Z,21.10
2018-05-10T11:37:34.607Z,20.70
2018-05-10T11:40:02.383Z,21.80
2018-05-10T11:42:30.081Z,21.40
2018-05-10T11:44:57.751Z,21.20
2018-05-10T11:47:25.525Z,21.80
2018-05-10T11:49:53.178Z,22.00
2018-05-10T11:52:20.976Z,21.90
2018-05-10T11:54:48.652Z,23.20
2018-05-10T11:57:16.351Z,23.20
2018-05-10T11:59:44.105Z,23.20
2018-05-10T12:02:11.737Z,21.60
2018-05-10T12:04:39.529Z,23.10
2018-05-10T12:07:07.237Z,23.10
2018-05-10T12:09:34.917Z,23.30
2018-05-10T12:12:02.756Z,23.20
2018-05-10T12:14:30.433Z,22.60
2018-05-10T12:16:58.125Z,22.80
2018-05-10T12:19:25.991Z,22.30
2018-05-10T12:21:53.682Z,20.20
2018-05-10T12:24:21.453Z,20.50
2018-05-10T12:26:49.089Z,21.50
2018-05-10T12:29:16.814Z,22.60
2018-05-10T12:31:44.658Z,22.80
2018-05-10T12:34:12.461Z,23.20
2018-05-10T12:36:40.101Z,23.20
2018-05-10T12:39:07.886Z,22.50
2018-05-10T12:41:35.681Z,22.20
2018-05-10T12:44:03.435Z,23.10
2018-05-10T12:46:31.314Z,22.90
2018-05-10T12:48:59.090Z,22.80
2018-05-10T12:51:26.867Z,22.20
2018-05-10T12:53:54.548Z,22.10
2018-05-10T12:56:22.425Z,21.80
2018-05-10T12:58:50.028Z,22.50
2018-05-10T13:01:17.870Z,21.70
2018-05-10T13:03:45.520Z,21.40
2018-05-10T13:06:13.248Z,22.10
2018-05-10T13:08:41.094Z,23.10
2018-05-10T13:11:08.793Z,22.70
2018-05-10T13:13:36.545Z,22.30
2018-05-10T13:16:04.249Z,22.20
2018-05-10T13:18:31.996Z,22.70
2018-05-10T13:20:59.879Z,23.10
2018-05-10T13:23:27.709Z,22.40
2018-05-10T13:25:56.171Z,23.30
2018-05-10T13:28:23.849Z,23.30
2018-05-10T13:30:51.597Z,23.40
2018-05-10T13:33:19.373Z,22.50
2018-05-10T13:35:47.152Z,21.70
2018-05-10T13:38:14.972Z,22.20
2018-05-10T13:40:42.620Z,21.90
2018-05-10T13:43:10.374Z,22.10
2018-05-10T13:45:38.083Z,21.70
2018-05-10T13:48:05.848Z,22.50
2018-05-10T13:50:33.602Z,22.10
2018-05-10T13:53:01.395Z,22.80
2018-05-10T13:55:29.871Z,22.30
2018-05-10T13:57:57.564Z,22.30
2018-05-10T14:00:25.321Z,22.20
2018-05-10T14:02:53.121Z,22.80
2018-05-10T14:05:20.792Z,22.80
2018-05-10T14:07:48.550Z,22.60
2018-05-10T14:10:16.325Z,22.60
2018-05-10T14:12:44.101Z,22.10
2018-05-10T14:15:11.803Z,21.80
2018-05-10T14:17:39.441Z,21.70
2018-05-10T14:20:07.121Z,21.90
2018-05-10T14:22:34.816Z,21.90
2018-05-10T14:25:03.392Z,21.90
2018-05-10T14:27:31.035Z,21.90
2018-05-10T14:29:59.583Z,22.30
2018-05-10T14:32:27.273Z,22.20
2018-05-10T14:34:54.950Z,22.40
2018-05-10T14:37:22.684Z,22.10
2018-05-10T14:39:50.388Z,22.60
2018-05-10T14:42:18.139Z,22.90
2018-05-10T14:44:45.942Z,22.80
2018-05-10T14:47:13.690Z,23.20
2018-05-10T14:49:41.462Z,23.60
2018-05-10T14:52:09.137Z,23.40
2018-05-10T14:54:36.837Z,23.80
2018-05-10T14:57:04.698Z,23.20
2018-05-10T14:59:32.567Z,23.30
2018-05-10T15:02:00.270Z,23.70
2018-05-10T15:04:28.120Z,23.50
2018-05-10T15:06:55.821Z,23.60
2018-05-10T15:09:23.571Z,23.50
2018-05-10T15:11:51.451Z,23.60
2018-05-10T15:14:19.147Z,22.90
2018-05-10T15:16:47.004Z,23.10
2018-05-10T15:19:14.697Z,23.20
2018-05-10T15:21:42.365Z,23.10
2018-05-10T15:24:10.045Z,22.60
2018-05-10T15:26:37.900Z,23.00
2018-05-10T15:29:05.597Z,22.50
2018-05-10T15:31:33.385Z,23.10
2018-05-10T15:34:01.127Z,23.30
2018-05-10T15:36:28.829Z,23.20
2018-05-10T15:38:56.497Z,23.10
2018-05-10T15:41:24.357Z,23.00
2018-05-10T15:43:52.027Z,23.20
2018-05-10T15:46:19.804Z,22.80
2018-05-10T15:48:47.581Z,22.40
2018-05-10T15:51:15.384Z,22.80
2018-05-10T15:53:43.152Z,23.00
2018-05-10T15:56:10.781Z,22.90
2018-05-10T15:58:38.583Z,23.50
2018-05-10T16:01:06.223Z,23.00
2018-05-10T16:03:33.953Z,22.40
2018-05-10T16:06:01.748Z,22.60
2018-05-10T16:08:29.591Z,23.40
2018-05-10T16:10:57.289Z,22.60
2018-05-10T16:13:25.039Z,23.00
2018-05-10T16:15:52.736Z,22.80
2018-05-10T16:18:20.591Z,23.40
2018-05-10T16:20:48.368Z,23.40
2018-05-10T16:23:16.144Z,22.80
2018-05-10T16:25:43.943Z,23.40
2018-05-10T16:28:11.721Z,23.50
2018-05-10T16:30:39.369Z,22.90
2018-05-10T16:33:07.068Z,23.10
2018-05-10T16:35:34.822Z,23.20
2018-05-10T16:38:02.596Z,23.10
2018-05-10T16:40:30.288Z,23.30
2018-05-10T16:42:58.046Z,22.60
2018-05-10T16:45:25.740Z,23.10
2018-05-10T16:47:53.503Z,22.00
2018-05-10T16:50:21.272Z,22.40
2018-05-10T16:52:48.968Z,22.70
2018-05-10T16:55:16.647Z,23.10
2018-05-10T16:57:44.399Z,22.80
2018-05-10T17:00:12.197Z,22.90
2018-05-10T17:02:39.950Z,21.90
2018-05-10T17:05:07.832Z,22.00
2018-05-10T17:07:35.504Z,22.40
2018-05-10T17:10:03.383Z,22.90
2018-05-10T17:12:31.085Z,23.30
2018-05-10T17:14:59.037Z,22.80
2018-05-10T17:17:26.680Z,23.10
2018-05-10T17:19:55.203Z,23.00
2018-05-10T17:22:22.904Z,23.00
2018-05-10T17:24:51.433Z,21.10
2018-05-10T17:27:19.971Z,21.60
2018-05-10T17:29:47.645Z,21.60
2018-05-10T17:32:15.546Z,21.70
2018-05-10T17:34:44.033Z,21.80
2018-05-10T17:37:11.889Z,21.70
2018-05-10T17:39:39.605Z,21.30
2018-05-10T17:42:07.442Z,22.00
2018-05-10T17:44:35.220Z,21.70
2018-05-10T17:47:03.097Z,21.90
2018-05-10T17:49:30.874Z,21.90
2018-05-10T17:51:58.650Z,21.80
2018-05-10T17:54:26.349Z,21.70
2018-05-10T17:56:54.121Z,21.40
2018-05-10T17:59:21.876Z,21.50
2018-05-10T18:01:49.541Z,20.60
2018-05-10T18:04:17.331Z,20.60
2018-05-10T18:06:45.106Z,20.80
2018-05-10T18:09:12.755Z,20.90
2018-05-10T18:11:40.473Z,20.60
2018-05-10T18:14:08.228Z,20.90
2018-05-10T18:16:36.005Z,20.90
2018-05-10T18:19:03.704Z,20.20
2018-05-10T18:21:31.455Z,20.30
2018-05-10T18:23:59.128Z,20.20
2018-05-10T18:26:26.905Z,20.20
2018-05-10T18:28:54.681Z,19.40
2018-05-10T18:31:22.377Z,19.50
2018-05-10T18:33:50.236Z,19.20
2018-05-10T18:36:17.938Z,19.60
2018-05-10T18:38:45.617Z,18.90
2018-05-10T18:41:13.276Z,18.60
2018-05-10T18:43:40.941Z,18.40
2018-05-10T18:46:08.704Z,19.00
2018-05-10T18:48:36.481Z,19.00
2018-05-10T18:51:04.257Z,19.20
2018-05-10T18:53:31.959Z,18.50
2018-05-10T18:55:59.715Z,18.90
2018-05-10T18:58:27.514Z,17.50
2018-05-10T19:00:55.267Z,18.20
2018-05-10T19:03:23.859Z,18.30
2018-05-10T19:05:51.635Z,18.30
2018-05-10T19:08:19.333Z,18.50
2018-05-10T19:10:46.980Z,18.70
2018-05-10T19:13:14.761Z,19.30
2018-05-10T19:15:42.431Z,19.50
2018-05-10T19:18:10.212Z,19.20
2018-05-10T19:20:37.984Z,19.10
2018-05-10T19:23:05.760Z,19.00
2018-05-10T19:25:33.457Z,17.90
2018-05-10T19:28:01.136Z,18.00
2018-05-10T19:30:28.848Z,18.10
2018-05-10T19:32:57.379Z,18.70
2018-05-10T19:35:25.046Z,18.70
2018-05-10T19:37:52.726Z,18.50
2018-05-10T19:40:20.427Z,18.50
2018-05-10T19:42:48.106Z,18.10
2018-05-10T19:45:15.947Z,17.90
2018-05-10T19:47:44.449Z,17.80
2018-05-10T19:50:12.220Z,17.80
2018-05-10T19:52:40.000Z,18.90
2018-05-10T19:55:08.521Z,19.10
2018-05-10T19:57:36.191Z,19.00
2018-05-10T20:00:04.659Z,18.50
2018-05-10T20:02:32.433Z,18.50
2018-05-10T20:05:00.211Z,18.30
2018-05-10T20:07:27.986Z,18.60
2018-05-10T20:09:55.864Z,19.10
2018-05-10T20:12:23.624Z,18.70
2018-05-10T20:14:53.900Z,19.30
2018-05-10T20:17:21.576Z,19.30
2018-05-10T20:19:49.325Z,19.40
2018-05-10T20:22:17.101Z,18.90
2018-05-10T20:24:45.083Z,18.90
2018-05-10T20:27:12.755Z,18.40
2018-05-10T20:29:40.452Z,18.20
2018-05-10T20:32:08.336Z,18.40
2018-05-10T20:34:36.088Z,18.40
2018-05-10T20:37:03.784Z,18.80
2018-05-10T20:39:31.537Z,19.00
2018-05-10T20:41:59.311Z,18.90
2018-05-10T20:44:27.088Z,19.10
2018-05-10T20:46:54.966Z,18.80
2018-05-10T20:49:22.746Z,19.20
2018-05-10T20:51:50.621Z,19.40
2018-05-10T20:54:18.398Z,19.40
2018-05-10T20:56:46.177Z,18.50
2018-05-10T20:59:14.062Z,18.80
2018-05-10T21:01:41.831Z,18.60
2018-05-10T21:04:09.657Z,19.10
2018-05-10T21:06:37.332Z,19.30
2018-05-10T21:09:05.744Z,19.30
2018-05-10T21:11:33.448Z,19.20
2018-05-10T21:14:01.269Z,19.30
2018-05-10T21:16:29.113Z,19.30
2018-05-10T21:18:57.595Z,19.00
2018-05-10T21:21:25.373Z,19.00
2018-05-10T21:23:53.181Z,18.70
2018-05-10T21:26:20.954Z,18.70
2018-05-10T21:28:48.805Z,18.70
2018-05-10T21:31:16.449Z,19.10
2018-05-10T21:33:44.263Z,19.00
2018-05-10T21:36:12.027Z,18.70
2018-05-10T21:38:39.726Z,18.40
2018-05-10T21:41:07.376Z,18.60
2018-05-10T21:43:35.074Z,19.10
2018-05-10T21:46:02.928Z,19.20
2018-05-10T21:48:30.629Z,19.10
2018-05-10T21:50:58.482Z,18.90
2018-05-10T21:53:26.291Z,18.90
2018-05-10T21:55:54.726Z,19.20
2018-05-10T21:58:22.527Z,19.20
2018-05-10T22:00:50.347Z,18.70
2018-05-10T22:03:18.182Z,18.80
2018-05-10T22:05:45.960Z,18.80
2018-05-10T22:08:13.736Z,18.50
2018-05-10T22:10:41.437Z,18.70
2018-05-10T22:13:09.297Z,18.50
2018-05-10T22:15:37.067Z,18.60
2018-05-10T22:18:04.864Z,18.70
2018-05-10T22:20:32.723Z,18.60
2018-05-10T22:23:00.421Z,18.60
2018-05-10T22:25:28.278Z,18.70
2018-05-10T22:27:56.523Z,18.70
2018-05-10T22:30:24.245Z,18.70
2018-05-10T22:32:51.937Z,18.70
2018-05-10T22:35:19.613Z,18.70
2018-05-10T22:37:47.292Z,18.50
2018-05-10T22:40:15.077Z,18.60
2018-05-10T22:42:42.709Z,18.60
2018-05-10T22:45:10.436Z,18.50
2018-05-10T22:47:38.189Z,18.00
2018-05-10T22:50:06.043Z,18.20
2018-05-10T22:52:33.680Z,18.40
2018-05-10T22:55:02.313Z,18.50
2018-05-10T22:57:30.091Z,18.40
2018-05-10T22:59:57.789Z,18.50
2018-05-10T23:02:25.475Z,18.40
2018-05-10T23:04:53.133Z,18.40
2018-05-10T23:07:20.909Z,18.40
2018-05-10T23:09:48.868Z,18.40
2018-05-10T23:12:16.750Z,18.40
2018-05-10T23:14:45.240Z,18.30
2018-05-10T23:17:13.014Z,18.30
2018-05-10T23:19:40.656Z,18.30
2018-05-10T23:22:09.182Z,18.20
2018-05-10T23:24:36.961Z,18.20
2018-05-10T23:27:04.838Z,18.10
2018-05-10T23:29:32.534Z,18.00
2018-05-10T23:32:00.287Z,18.10
2018-05-10T23:34:27.917Z,18.10
2018-05-10T23:36:56.454Z,18.10
2018-05-10T23:39:24.153Z,18.00
2018-05-10T23:41:51.904Z,18.00
2018-05-10T23:44:19.607Z,18.00
2018-05-10T23:46:47.390Z,18.00
2018-05-10T23:49:15.956Z,17.80
2018-05-10T23:51:43.625Z,17.80
2018-05-10T23:54:11.333Z,17.80
2018-05-10T23:56:39.033Z,17.80
2018-05-10T23:59:08.510Z,17.70
